createdAt,value
2019-01-24T00:02:05.017Z,67.36
2019-01-24T00:04:35.510Z,66.87
2019-01-24T00:07:05.138Z,66.49
2019-01-24T00:09:34.966Z,66.97
2019-01-24T00:12:04.862Z,66.25
2019-01-24T00:14:34.367Z,66.67
2019-01-24T00:17:04.857Z,66.29
2019-01-24T00:19:34.424Z,66.37
2019-01-24T00:22:04.171Z,66.21
2019-01-24T00:24:33.591Z,65.79
2019-01-24T00:27:04.971Z,65.95
2019-01-24T00:29:34.392Z,65.56
2019-01-24T00:32:03.784Z,65.82
2019-01-24T00:34:33.699Z,65.76
2019-01-24T00:37:03.536Z,66.00
2019-01-24T00:39:33.569Z,66.16
2019-01-24T00:42:05.430Z,65.82
2019-01-24T00:44:34.968Z,66.12
2019-01-24T00:47:05.842Z,66.74
2019-01-24T00:49:38.030Z,66.41
2019-01-24T00:52:07.444Z,66.44
2019-01-24T00:54:37.415Z,66.09
2019-01-24T00:57:06.971Z,65.68
2019-01-24T00:59:36.412Z,66.01
2019-01-24T01:02:05.876Z,65.48
2019-01-24T01:04:35.435Z,65.44
2019-01-24T01:07:05.957Z,65.77
2019-01-24T01:09:35.351Z,65.59
2019-01-24T01:12:05.360Z,65.48
2019-01-24T01:14:34.755Z,65.20
2019-01-24T01:17:04.255Z,64.93
2019-01-24T01:19:35.599Z,64.84
2019-01-24T01:22:06.708Z,64.93
2019-01-24T01:24:36.108Z,64.79
2019-01-24T01:27:05.947Z,64.85
2019-01-24T01:29:35.348Z,64.46
2019-01-24T01:32:04.834Z,64.16
2019-01-24T01:34:36.370Z,64.60
2019-01-24T01:37:05.391Z,65.18
2019-01-24T01:39:34.793Z,64.64
2019-01-24T01:42:04.655Z,65.11
2019-01-24T01:44:34.050Z,64.72
2019-01-24T01:47:03.579Z,64.55
2019-01-24T01:49:33.915Z,64.82
2019-01-24T01:52:05.433Z,64.88
2019-01-24T01:54:36.306Z,65.04
2019-01-24T01:57:07.754Z,64.87
2019-01-24T01:59:37.157Z,65.13
2019-01-24T02:02:06.588Z,64.82
2019-01-24T02:04:36.282Z,64.91
2019-01-24T02:07:07.437Z,64.54
2019-01-24T02:09:36.859Z,64.64
2019-01-24T02:12:07.319Z,64.29
2019-01-24T02:14:36.741Z,64.37
2019-01-24T02:17:06.523Z,64.16
2019-01-24T02:19:36.200Z,64.44
2019-01-24T02:22:05.792Z,64.75
2019-01-24T02:24:35.207Z,64.97
2019-01-24T02:27:05.059Z,64.84
2019-01-24T02:29:34.459Z,64.36
2019-01-24T02:32:03.868Z,64.47
2019-01-24T02:34:33.882Z,64.65
2019-01-24T02:37:03.688Z,64.29
2019-01-24T02:39:33.843Z,64.27
2019-01-24T02:42:04.025Z,64.10
2019-01-24T02:44:34.760Z,63.98
2019-01-24T02:47:04.297Z,63.81
2019-01-24T02:49:35.724Z,64.17
2019-01-24T02:52:05.227Z,63.56
2019-01-24T02:54:34.658Z,63.68
2019-01-24T02:57:04.120Z,63.94
2019-01-24T02:59:33.806Z,63.77
2019-01-24T03:02:05.305Z,64.40
2019-01-24T03:04:38.096Z,63.74
2019-01-24T03:07:07.539Z,63.51
2019-01-24T03:09:36.919Z,62.99
2019-01-24T03:12:06.448Z,62.96
2019-01-24T03:14:35.891Z,62.58
2019-01-24T03:17:07.221Z,62.74
2019-01-24T03:19:36.665Z,63.22
2019-01-24T03:22:06.352Z,63.35
2019-01-24T03:24:36.776Z,63.11
2019-01-24T03:27:06.310Z,63.11
2019-01-24T03:29:35.742Z,62.44
2019-01-24T03:32:05.209Z,62.59
2019-01-24T03:34:34.652Z,62.65
2019-01-24T03:37:04.164Z,62.91
2019-01-24T03:39:33.788Z,62.71
2019-01-24T03:42:04.000Z,62.21
2019-01-24T03:44:33.915Z,62.48
2019-01-24T03:47:03.835Z,62.28
2019-01-24T03:49:35.798Z,62.38
2019-01-24T03:52:06.317Z,62.06
2019-01-24T03:54:36.828Z,62.38
2019-01-24T03:57:08.315Z,62.37
2019-01-24T03:59:38.795Z,62.72
2019-01-24T04:02:08.427Z,62.78
2019-01-24T04:04:39.282Z,62.68
2019-01-24T04:07:11.587Z,62.26
2019-01-24T04:09:42.575Z,62.39
2019-01-24T04:12:13.499Z,62.15
2019-01-24T04:14:42.922Z,61.90
2019-01-24T04:17:13.799Z,62.06
2019-01-24T04:19:43.413Z,62.16
2019-01-24T04:22:12.844Z,62.29
2019-01-24T04:24:42.603Z,62.13
2019-01-24T04:27:12.092Z,62.33
2019-01-24T04:29:42.364Z,61.58
2019-01-24T04:32:11.766Z,61.22
2019-01-24T04:34:41.295Z,61.61
2019-01-24T04:37:10.740Z,61.71
2019-01-24T04:39:40.214Z,61.83
2019-01-24T04:42:09.875Z,61.28
2019-01-24T04:44:39.353Z,61.41
2019-01-24T04:47:10.796Z,61.39
2019-01-24T04:49:40.372Z,61.00
2019-01-24T04:52:09.855Z,60.72
2019-01-24T04:54:39.395Z,61.69
2019-01-24T04:57:08.936Z,61.84
2019-01-24T04:59:38.371Z,61.66
2019-01-24T05:02:07.857Z,61.38
2019-01-24T05:04:37.548Z,61.28
2019-01-24T05:07:06.960Z,60.95
2019-01-24T05:09:36.352Z,61.05
2019-01-24T05:12:05.797Z,60.74
2019-01-24T05:14:35.204Z,60.69
2019-01-24T05:17:04.586Z,60.83
2019-01-24T05:19:34.164Z,60.54
2019-01-24T05:22:04.034Z,60.76
2019-01-24T05:24:34.035Z,60.67
2019-01-24T05:27:04.347Z,60.63
2019-01-24T05:29:34.438Z,60.35
2019-01-24T05:32:04.195Z,59.97
2019-01-24T05:34:36.062Z,60.33
2019-01-24T05:37:05.648Z,60.81
2019-01-24T05:39:35.033Z,60.31
2019-01-24T05:42:04.488Z,60.11
2019-01-24T05:44:34.809Z,60.46
2019-01-24T05:47:04.620Z,60.38
2019-01-24T05:49:34.218Z,60.12
2019-01-24T05:52:04.139Z,60.70
2019-01-24T05:54:34.186Z,60.49
2019-01-24T05:57:04.220Z,60.16
2019-01-24T05:59:34.104Z,60.68
2019-01-24T06:02:04.442Z,60.76
2019-01-24T06:04:34.446Z,61.20
2019-01-24T06:07:04.143Z,61.35
2019-01-24T06:09:35.988Z,61.27
2019-01-24T06:12:05.488Z,61.79
2019-01-24T06:14:34.877Z,61.83
2019-01-24T06:17:04.278Z,61.70
2019-01-24T06:19:34.330Z,60.96
2019-01-24T06:22:04.396Z,61.70
2019-01-24T06:24:34.187Z,61.63
2019-01-24T06:27:04.393Z,61.84
2019-01-24T06:29:34.196Z,61.45
2019-01-24T06:32:04.913Z,62.24
2019-01-24T06:34:34.340Z,62.16
2019-01-24T06:37:04.218Z,61.92
2019-01-24T06:39:34.252Z,61.32
2019-01-24T06:42:04.176Z,61.34
2019-01-24T06:44:34.264Z,61.63
2019-01-24T06:47:04.201Z,62.06
2019-01-24T06:49:34.295Z,62.61
2019-01-24T06:52:04.445Z,61.69
2019-01-24T06:54:34.227Z,61.38
2019-01-24T06:57:04.244Z,61.43
2019-01-24T06:59:34.326Z,61.49
2019-01-24T07:02:04.211Z,61.45
2019-01-24T07:04:34.413Z,61.40
2019-01-24T07:07:04.264Z,61.26
2019-01-24T07:09:34.323Z,62.58
2019-01-24T07:12:04.518Z,62.38
2019-01-24T07:14:34.355Z,62.27
2019-01-24T07:17:04.303Z,62.11
2019-01-24T07:19:34.325Z,61.83
2019-01-24T07:22:04.490Z,61.86
2019-01-24T07:24:34.315Z,62.30
2019-01-24T07:27:04.550Z,62.14
2019-01-24T07:29:34.364Z,61.78
2019-01-24T07:32:04.500Z,61.51
2019-01-24T07:34:34.415Z,61.76
2019-01-24T07:37:04.735Z,61.16
2019-01-24T07:39:34.332Z,61.35
2019-01-24T07:42:04.493Z,61.40
2019-01-24T07:44:34.440Z,61.19
2019-01-24T07:47:04.529Z,60.82
2019-01-24T07:49:34.472Z,60.97
2019-01-24T07:52:04.529Z,60.75
2019-01-24T07:54:34.341Z,60.52
2019-01-24T07:57:04.521Z,60.46
2019-01-24T07:59:34.376Z,60.49
2019-01-24T08:02:04.799Z,61.21
2019-01-24T08:04:34.612Z,60.62
2019-01-24T08:07:04.525Z,60.44
2019-01-24T08:09:34.464Z,60.21
2019-01-24T08:12:04.871Z,60.38
2019-01-24T08:14:34.520Z,60.17
2019-01-24T08:17:04.639Z,60.43
2019-01-24T08:19:34.477Z,60.19
2019-01-24T08:22:04.449Z,59.73
2019-01-24T08:24:34.408Z,59.63
2019-01-24T08:27:04.607Z,59.62
2019-01-24T08:29:34.468Z,59.32
2019-01-24T08:32:04.546Z,59.55
2019-01-24T08:34:34.635Z,59.39
2019-01-24T08:37:04.483Z,59.31
2019-01-24T08:39:34.724Z,59.42
2019-01-24T08:42:04.614Z,59.16
2019-01-24T08:44:34.457Z,59.04
2019-01-24T08:47:04.533Z,59.15
2019-01-24T08:49:34.775Z,59.13
2019-01-24T08:52:04.624Z,58.42
2019-01-24T08:54:37.493Z,58.72
2019-01-24T08:57:07.018Z,58.83
2019-01-24T08:59:36.716Z,58.71
2019-01-24T09:02:06.617Z,58.53
2019-01-24T09:04:36.204Z,58.83
2019-01-24T09:07:06.156Z,59.11
2019-01-24T09:09:35.835Z,59.11
2019-01-24T09:12:06.104Z,59.68
2019-01-24T09:14:35.514Z,59.40
2019-01-24T09:17:04.913Z,58.95
2019-01-24T09:19:35.035Z,59.28
2019-01-24T09:22:04.850Z,59.20
2019-01-24T09:24:36.108Z,58.96
2019-01-24T09:27:05.850Z,58.96
2019-01-24T09:29:35.426Z,58.96
2019-01-24T09:32:05.302Z,59.09
2019-01-24T09:34:34.850Z,58.91
2019-01-24T09:37:04.594Z,58.94
2019-01-24T09:39:34.611Z,58.96
2019-01-24T09:42:04.598Z,59.01
2019-01-24T09:44:35.009Z,59.18
2019-01-24T09:47:04.738Z,59.15
2019-01-24T09:49:34.662Z,59.36
2019-01-24T09:52:04.640Z,59.32
2019-01-24T09:54:34.772Z,59.39
2019-01-24T09:57:04.955Z,59.61
2019-01-24T09:59:34.809Z,59.13
2019-01-24T10:02:04.675Z,59.71
2019-01-24T10:04:36.991Z,59.42
2019-01-24T10:07:08.849Z,59.59
2019-01-24T10:09:38.894Z,59.53
2019-01-24T10:12:08.340Z,58.94
2019-01-24T10:14:37.807Z,59.25
2019-01-24T10:17:07.412Z,59.67
2019-01-24T10:19:36.947Z,59.29
2019-01-24T10:22:06.402Z,59.02
2019-01-24T10:24:36.348Z,59.02
2019-01-24T10:27:05.974Z,59.04
2019-01-24T10:29:37.797Z,58.85
2019-01-24T10:32:07.515Z,58.90
2019-01-24T10:34:37.186Z,59.05
2019-01-24T10:37:06.630Z,59.08
2019-01-24T10:39:36.099Z,59.11
2019-01-24T10:42:07.204Z,59.02
2019-01-24T10:44:39.366Z,58.81
2019-01-24T10:47:09.068Z,58.55
2019-01-24T10:49:38.494Z,58.09
2019-01-24T10:52:07.939Z,58.31
2019-01-24T10:54:37.655Z,58.16
2019-01-24T10:57:07.246Z,58.47
2019-01-24T10:59:36.690Z,58.65
2019-01-24T11:02:06.194Z,58.88
2019-01-24T11:04:35.774Z,58.17
2019-01-24T11:07:05.265Z,58.27
2019-01-24T11:09:34.801Z,58.37
2019-01-24T11:12:05.291Z,58.04
2019-01-24T11:14:34.760Z,57.73
2019-01-24T11:17:05.833Z,57.42
2019-01-24T11:19:35.253Z,57.49
2019-01-24T11:22:04.842Z,57.54
2019-01-24T11:24:35.044Z,57.87
2019-01-24T11:27:04.738Z,57.52
2019-01-24T11:29:34.822Z,58.04
2019-01-24T11:32:05.112Z,57.69
2019-01-24T11:34:34.721Z,57.19
2019-01-24T11:37:10.576Z,57.36
2019-01-24T11:39:40.078Z,57.39
2019-01-24T11:42:09.482Z,57.79
2019-01-24T11:44:38.843Z,57.55
2019-01-24T11:47:08.933Z,57.71
2019-01-24T11:49:38.698Z,57.11
2019-01-24T11:52:08.103Z,57.59
2019-01-24T11:54:37.543Z,57.40
2019-01-24T11:57:06.924Z,56.59
2019-01-24T11:59:36.317Z,57.01
2019-01-24T12:02:06.189Z,57.20
2019-01-24T12:04:35.582Z,56.96
2019-01-24T12:07:05.243Z,56.64
2019-01-24T12:09:36.386Z,57.96
2019-01-24T12:12:05.906Z,57.31
2019-01-24T12:14:35.277Z,56.94
2019-01-24T12:17:04.876Z,56.68
2019-01-24T12:19:34.812Z,56.38
2019-01-24T12:22:05.136Z,56.02
2019-01-24T12:24:35.210Z,55.99
2019-01-24T12:27:04.850Z,56.02
2019-01-24T12:29:34.972Z,55.78
2019-01-24T12:32:05.003Z,55.94
2019-01-24T12:34:34.937Z,56.11
2019-01-24T12:37:11.131Z,55.88
2019-01-24T12:39:36.447Z,56.50
2019-01-24T12:42:05.846Z,56.82
2019-01-24T12:44:35.237Z,56.13
2019-01-24T12:47:05.062Z,56.45
2019-01-24T12:49:34.903Z,55.68
2019-01-24T12:52:05.270Z,55.63
2019-01-24T12:54:35.258Z,55.37
2019-01-24T12:57:05.066Z,55.29
2019-01-24T12:59:35.013Z,54.89
2019-01-24T13:02:05.149Z,54.82
2019-01-24T13:04:34.909Z,55.52
2019-01-24T13:07:04.926Z,54.81
2019-01-24T13:09:35.098Z,54.40
2019-01-24T13:12:05.057Z,54.30
2019-01-24T13:14:34.977Z,54.73
2019-01-24T13:17:05.147Z,54.72
2019-01-24T13:19:34.928Z,54.56
2019-01-24T13:22:05.160Z,54.53
2019-01-24T13:24:35.129Z,54.26
2019-01-24T13:27:05.042Z,53.70
2019-01-24T13:29:35.007Z,54.58
2019-01-24T13:32:07.439Z,54.99
2019-01-24T13:34:36.819Z,54.58
2019-01-24T13:37:06.201Z,55.34
2019-01-24T13:39:35.618Z,54.98
2019-01-24T13:42:05.209Z,55.18
2019-01-24T13:44:35.041Z,55.12
2019-01-24T13:47:05.298Z,54.73
2019-01-24T13:49:35.008Z,54.63
2019-01-24T13:52:05.583Z,54.92
2019-01-24T13:54:35.238Z,54.82
2019-01-24T13:57:05.590Z,55.07
2019-01-24T13:59:38.076Z,55.15
2019-01-24T14:02:07.607Z,55.57
2019-01-24T14:04:46.487Z,55.06
2019-01-24T14:07:15.889Z,55.14
2019-01-24T14:09:45.357Z,55.34
2019-01-24T14:12:14.741Z,55.55
2019-01-24T14:14:44.265Z,55.85
2019-01-24T14:17:13.883Z,55.64
2019-01-24T14:19:43.330Z,55.74
2019-01-24T14:22:12.744Z,55.45
2019-01-24T14:24:42.197Z,55.41
2019-01-24T14:27:11.572Z,55.86
2019-01-24T14:29:40.985Z,55.50
2019-01-24T14:32:10.559Z,55.41
2019-01-24T14:34:39.943Z,55.34
2019-01-24T14:37:09.316Z,55.01
2019-01-24T14:39:38.976Z,55.12
2019-01-24T14:42:08.346Z,54.93
2019-01-24T14:44:37.731Z,55.43
2019-01-24T14:47:07.389Z,55.48
2019-01-24T14:49:36.767Z,55.30
2019-01-24T14:52:06.408Z,55.30
2019-01-24T14:54:35.835Z,55.51
2019-01-24T14:57:05.220Z,54.86
2019-01-24T14:59:35.176Z,55.28
2019-01-24T15:02:05.303Z,55.10
2019-01-24T15:04:34.672Z,55.47
2019-01-24T15:07:04.049Z,55.29
2019-01-24T15:09:33.457Z,55.24
2019-01-24T15:12:02.847Z,55.15
2019-01-24T15:14:32.242Z,55.20
2019-01-24T15:17:01.669Z,54.91
2019-01-24T15:19:31.043Z,55.32
2019-01-24T15:22:00.432Z,55.20
2019-01-24T15:24:30.013Z,55.06
2019-01-24T15:26:59.393Z,55.22
2019-01-24T15:29:28.784Z,55.59
2019-01-24T15:31:58.299Z,55.42
2019-01-24T15:34:27.670Z,55.29
2019-01-24T15:36:57.075Z,55.81
2019-01-24T15:39:26.633Z,55.57
2019-01-24T15:41:56.034Z,55.45
2019-01-24T15:44:25.437Z,55.35
2019-01-24T15:46:55.013Z,55.43
2019-01-24T15:49:24.424Z,55.44
2019-01-24T15:51:53.818Z,55.76
2019-01-24T15:54:23.516Z,55.22
2019-01-24T15:56:52.907Z,55.57
2019-01-24T15:59:22.353Z,55.25
2019-01-24T16:01:52.197Z,55.32
2019-01-24T16:04:21.890Z,55.43
2019-01-24T16:06:51.272Z,55.42
2019-01-24T16:09:20.791Z,55.47
2019-01-24T16:11:50.181Z,55.64
2019-01-24T16:14:19.568Z,55.40
2019-01-24T16:16:49.230Z,55.09
2019-01-24T16:19:18.695Z,55.12
2019-01-24T16:21:48.073Z,55.54
2019-01-24T16:24:17.594Z,55.55
2019-01-24T16:26:46.980Z,54.92
2019-01-24T16:29:16.377Z,54.93
2019-01-24T16:31:45.906Z,55.01
2019-01-24T16:34:15.277Z,55.20
2019-01-24T16:36:46.167Z,55.52
2019-01-24T16:39:17.655Z,55.64
2019-01-24T16:41:47.054Z,55.26
2019-01-24T16:44:16.440Z,54.99
2019-01-24T16:46:45.895Z,55.03
2019-01-24T16:49:16.348Z,54.98
2019-01-24T16:51:51.616Z,55.45
2019-01-24T16:54:21.184Z,55.41
2019-01-24T16:56:50.570Z,55.01
2019-01-24T16:59:20.310Z,55.01
2019-01-24T17:01:49.762Z,55.35
2019-01-24T17:04:19.263Z,55.19
2019-01-24T17:06:50.358Z,54.85
2019-01-24T17:09:20.058Z,55.00
2019-01-24T17:11:50.757Z,54.78
2019-01-24T17:14:22.435Z,54.99
2019-01-24T17:16:51.380Z,55.16
2019-01-24T17:19:20.802Z,55.23
2019-01-24T17:21:50.177Z,55.01
2019-01-24T17:24:19.598Z,55.75
2019-01-24T17:26:48.983Z,56.00
2019-01-24T17:29:18.445Z,55.90
2019-01-24T17:31:48.155Z,55.66
2019-01-24T17:34:17.590Z,55.50
2019-01-24T17:36:46.977Z,55.13
2019-01-24T17:39:16.514Z,55.25
2019-01-24T17:41:45.919Z,55.47
2019-01-24T17:44:15.303Z,55.20
2019-01-24T17:46:44.715Z,54.84
2019-01-24T17:49:14.089Z,54.84
2019-01-24T17:51:43.576Z,55.09
2019-01-24T17:54:13.004Z,55.35
2019-01-24T17:56:42.379Z,55.28
2019-01-24T17:59:11.795Z,55.01
2019-01-24T18:01:41.388Z,54.99
2019-01-24T18:04:10.837Z,55.41
2019-01-24T18:06:40.313Z,55.14
2019-01-24T18:09:10.538Z,55.25
2019-01-24T18:11:40.368Z,55.48
2019-01-24T18:14:13.706Z,55.32
2019-01-24T18:16:43.324Z,55.45
2019-01-24T18:19:12.724Z,55.13
2019-01-24T18:21:42.093Z,55.22
2019-01-24T18:24:11.624Z,55.29
2019-01-24T18:26:41.004Z,55.03
2019-01-24T18:29:10.403Z,55.07
2019-01-24T18:31:40.519Z,54.91
2019-01-24T18:34:10.416Z,54.69
2019-01-24T18:36:40.362Z,54.55
2019-01-24T18:39:12.859Z,54.60
2019-01-24T18:41:42.258Z,54.75
2019-01-24T18:44:11.636Z,54.69
2019-01-24T18:46:41.090Z,54.64
2019-01-24T18:49:20.874Z,54.83
2019-01-24T18:51:51.635Z,55.04
2019-01-24T18:54:21.418Z,55.32
2019-01-24T18:56:50.930Z,55.33
2019-01-24T18:59:20.331Z,55.18
2019-01-24T19:01:50.994Z,55.02
2019-01-24T19:04:20.363Z,54.99
2019-01-24T19:06:49.780Z,55.32
2019-01-24T19:09:19.214Z,55.46
2019-01-24T19:11:48.621Z,55.22
2019-01-24T19:14:17.992Z,55.72
2019-01-24T19:16:48.060Z,55.31
2019-01-24T19:19:17.464Z,55.47
2019-01-24T19:21:46.875Z,55.73
2019-01-24T19:24:16.412Z,55.29
2019-01-24T19:26:45.785Z,55.27
2019-01-24T19:29:15.166Z,55.43
2019-01-24T19:31:44.609Z,55.38
2019-01-24T19:34:13.989Z,55.58
2019-01-24T19:36:43.469Z,55.58
2019-01-24T19:39:13.186Z,55.47
2019-01-24T19:41:42.591Z,55.19
2019-01-24T19:44:15.819Z,55.06
2019-01-24T19:46:43.237Z,55.15
2019-01-24T19:49:12.616Z,55.10
2019-01-24T19:51:42.046Z,55.13
2019-01-24T19:54:11.693Z,55.02
2019-01-24T19:56:41.682Z,55.24
2019-01-24T19:59:11.676Z,54.38
2019-01-24T20:01:42.027Z,54.80
2019-01-24T20:04:11.735Z,55.13
2019-01-24T20:06:41.747Z,55.12
2019-01-24T20:09:11.985Z,55.17
2019-01-24T20:11:41.695Z,55.05
2019-01-24T20:14:11.689Z,54.81
2019-01-24T20:16:41.878Z,54.75
2019-01-24T20:19:12.007Z,55.63
2019-01-24T20:21:41.726Z,54.97
2019-01-24T20:24:12.298Z,55.30
2019-01-24T20:26:41.711Z,54.86
2019-01-24T20:29:11.845Z,54.97
2019-01-24T20:31:41.845Z,54.76
2019-01-24T20:34:11.793Z,55.12
2019-01-24T20:36:41.799Z,54.93
2019-01-24T20:39:12.001Z,55.30
2019-01-24T20:41:41.831Z,55.41
2019-01-24T20:44:11.686Z,55.16
2019-01-24T20:46:42.080Z,54.74
2019-01-24T20:49:11.924Z,55.09
2019-01-24T20:51:41.844Z,55.12
2019-01-24T20:54:11.929Z,54.88
2019-01-24T20:56:41.789Z,54.62
2019-01-24T20:59:11.806Z,54.51
2019-01-24T21:01:41.943Z,54.62
2019-01-24T21:04:11.864Z,54.24
2019-01-24T21:06:41.853Z,54.24
2019-01-24T21:09:14.901Z,54.63
2019-01-24T21:11:43.307Z,54.52
2019-01-24T21:14:13.029Z,55.13
2019-01-24T21:16:42.629Z,55.12
2019-01-24T21:19:12.022Z,54.71
2019-01-24T21:21:41.934Z,54.48
2019-01-24T21:24:12.275Z,54.47
2019-01-24T21:26:41.904Z,54.43
2019-01-24T21:29:11.910Z,54.11
2019-01-24T21:31:42.074Z,54.44
2019-01-24T21:34:11.868Z,54.46
2019-01-24T21:36:41.899Z,54.88
2019-01-24T21:39:12.058Z,54.68
2019-01-24T21:41:41.982Z,54.46
2019-01-24T21:44:11.871Z,54.72
2019-01-24T21:46:42.011Z,54.45
2019-01-24T21:49:11.912Z,54.36
2019-01-24T21:51:41.955Z,54.30
2019-01-24T21:54:12.276Z,54.35
2019-01-24T21:56:41.976Z,54.55
2019-01-24T21:59:11.983Z,54.55
2019-01-24T22:01:42.411Z,54.29
2019-01-24T22:04:11.914Z,54.11
2019-01-24T22:06:41.937Z,54.40
2019-01-24T22:09:12.052Z,54.76
2019-01-24T22:11:42.031Z,54.82
2019-01-24T22:14:12.013Z,54.36
2019-01-24T22:16:42.001Z,54.33
2019-01-24T22:19:11.953Z,55.08
2019-01-24T22:21:41.993Z,54.61
2019-01-24T22:24:12.027Z,54.41
2019-01-24T22:26:42.232Z,54.18
2019-01-24T22:29:12.063Z,54.38
2019-01-24T22:31:42.167Z,54.95
2019-01-24T22:34:12.050Z,54.38
2019-01-24T22:36:42.090Z,54.23
2019-01-24T22:39:12.147Z,54.08
2019-01-24T22:41:42.126Z,54.02
2019-01-24T22:44:12.128Z,54.26
2019-01-24T22:46:42.118Z,54.13
2019-01-24T22:49:12.079Z,53.96
2019-01-24T22:51:42.280Z,54.02
2019-01-24T22:54:12.234Z,54.27
2019-01-24T22:56:42.183Z,54.46
2019-01-24T22:59:12.277Z,53.90
2019-01-24T23:02:05.117Z,54.42
2019-01-24T23:04:34.531Z,54.36
2019-01-24T23:07:04.228Z,54.16
2019-01-24T23:09:33.897Z,54.11
2019-01-24T23:12:03.300Z,54.59
2019-01-24T23:14:32.681Z,54.50
2019-01-24T23:17:02.195Z,54.57
2019-01-24T23:19:31.634Z,54.27
2019-01-24T23:22:01.327Z,54.32
2019-01-24T23:24:30.773Z,54.37
2019-01-24T23:27:00.166Z,54.47
2019-01-24T23:29:29.755Z,54.57
2019-01-24T23:31:59.389Z,54.75
2019-01-24T23:34:28.776Z,54.59
2019-01-24T23:36:58.180Z,53.81
2019-01-24T23:39:27.621Z,53.82
2019-01-24T23:41:57.022Z,54.24
2019-01-24T23:44:26.483Z,54.01
2019-01-24T23:46:55.956Z,53.86
2019-01-24T23:49:25.352Z,54.44
2019-01-24T23:51:54.731Z,55.12
2019-01-24T23:54:24.594Z,54.68
2019-01-24T23:56:53.973Z,54.90
2019-01-24T23:59:23.357Z,54.58
